createdAt,value
2017-09-12T07:00:01.787Z,96961.97
2017-09-12T07:02:31.343Z,96957.39
2017-09-12T07:05:07.244Z,96950.40
2017-09-12T07:07:38.311Z,96951.87
2017-09-12T07:10:08.583Z,96960.05
2017-09-12T07:12:37.989Z,96957.11
2017-09-12T07:15:08.209Z,96962.33
2017-09-12T07:17:37.905Z,96968.77
2017-09-12T07:20:06.951Z,96976.25
2017-09-12T07:22:36.425Z,96973.73
2017-09-12T07:25:05.811Z,96984.44
2017-09-12T07:27:36.110Z,96984.69
2017-09-12T07:30:04.845Z,96990.55
2017-09-12T07:32:34.112Z,96997.37
2017-09-12T07:35:03.756Z,96999.83
2017-09-12T07:37:34.207Z,96996.52
2017-09-12T07:40:04.406Z,97006.22
2017-09-12T07:44:09.325Z,97008.89
2017-09-12T07:46:40.271Z,97015.52
2017-09-12T07:49:09.747Z,97019.05
2017-09-12T07:51:38.994Z,97010.80
2017-09-12T07:54:09.345Z,97022.50
2017-09-12T07:56:38.688Z,97024.97
2017-09-12T07:59:07.891Z,97030.95
2017-09-12T08:01:39.341Z,97040.37
2017-09-12T08:04:10.145Z,97039.13
2017-09-12T08:06:39.450Z,97039.52
2017-09-12T08:09:08.928Z,97042.08
2017-09-12T08:11:38.130Z,97045.49
2017-09-12T08:14:07.618Z,97052.96
2017-09-12T08:16:37.473Z,97055.94
2017-09-12T08:19:05.014Z,97063.50
2017-09-12T08:21:35.461Z,97065.89
2017-09-12T08:24:05.372Z,97063.66
2017-09-12T08:26:34.987Z,97063.70
2017-09-12T08:29:04.710Z,97067.26
2017-09-12T08:31:34.629Z,97067.35
2017-09-12T08:34:04.765Z,97063.70
2017-09-12T08:36:33.764Z,97070.58
2017-09-12T08:39:03.794Z,97066.05
2017-09-12T08:41:33.409Z,97072.96
2017-09-12T08:44:02.897Z,97076.81
2017-09-12T08:46:32.966Z,97046.23
2017-09-12T08:49:02.367Z,97059.31
2017-09-12T08:51:31.868Z,97081.19
2017-09-12T08:53:59.580Z,97088.38
2017-09-12T08:56:29.178Z,97086.59
2017-09-12T08:58:59.427Z,97085.64
2017-09-12T09:01:29.917Z,97082.07
2017-09-12T09:03:59.939Z,97087.82
2017-09-12T09:06:29.473Z,97086.84
2017-09-12T09:08:59.181Z,97090.14
2017-09-12T09:11:28.677Z,97086.52
2017-09-12T09:13:57.978Z,97074.98
2017-09-12T09:16:27.911Z,97077.94
2017-09-12T09:19:05.482Z,97074.09
2017-09-12T09:21:36.203Z,97075.30
2017-09-12T09:24:05.464Z,97076.41
2017-09-12T09:26:34.982Z,97085.17
2017-09-12T09:29:04.833Z,97092.03
2017-09-12T09:31:34.434Z,97075.84
2017-09-12T09:34:03.673Z,97091.45
2017-09-12T09:36:33.225Z,97085.30
2017-09-12T09:39:03.106Z,97093.76
2017-09-12T09:41:32.382Z,97088.13
2017-09-12T09:44:01.899Z,97084.52
2017-09-12T09:46:31.195Z,97086.08
2017-09-12T09:49:00.595Z,97081.61
2017-09-12T09:51:30.560Z,97090.76
2017-09-12T09:53:59.849Z,97088.78
2017-09-12T09:56:29.476Z,97081.64
2017-09-12T09:58:56.953Z,97082.59
2017-09-12T10:01:25.960Z,97090.63
2017-09-12T10:03:55.728Z,97088.20
2017-09-12T10:06:23.443Z,97078.23
2017-09-12T10:08:53.539Z,97076.20
2017-09-12T10:11:22.628Z,97082.92
2017-09-12T10:13:52.017Z,97077.05
2017-09-12T10:16:21.704Z,97085.92
2017-09-12T10:18:51.346Z,97080.88
2017-09-12T10:21:21.264Z,97089.74
2017-09-12T10:23:50.555Z,97092.00
2017-09-12T10:26:20.265Z,97100.52
2017-09-12T10:28:49.595Z,97096.47
2017-09-12T10:31:19.774Z,97105.13
2017-09-12T10:33:49.206Z,97110.41
2017-09-12T10:36:18.276Z,97105.42
2017-09-12T10:38:48.319Z,97113.48
2017-09-12T10:41:17.874Z,97109.32
2017-09-12T10:43:47.311Z,97101.13
2017-09-12T10:46:16.916Z,97102.02
2017-09-12T10:48:48.304Z,97095.59
2017-09-12T10:51:17.728Z,97096.86
2017-09-12T10:53:49.039Z,97098.07
2017-09-12T10:56:17.362Z,97093.59
2017-09-12T10:58:47.571Z,97100.52
2017-09-12T11:01:18.516Z,97107.12
2017-09-12T11:03:47.446Z,97100.86
2017-09-12T11:06:16.423Z,97107.13
2017-09-12T11:08:46.082Z,97100.94
2017-09-12T11:11:15.270Z,97118.50
2017-09-12T11:13:44.616Z,97129.45
2017-09-12T11:16:19.899Z,97142.69
2017-09-12T11:18:49.634Z,97138.64
2017-09-12T11:21:19.432Z,97132.02
2017-09-12T11:23:51.255Z,97128.84
2017-09-12T11:26:20.543Z,97127.46
2017-09-12T11:28:51.043Z,97127.81
2017-09-12T11:31:20.170Z,97126.16
2017-09-12T11:33:49.955Z,97124.12
2017-09-12T11:36:19.686Z,97129.31
2017-09-12T11:38:49.930Z,97111.48
2017-09-12T11:41:19.194Z,97135.02
2017-09-12T11:43:48.461Z,97133.00
2017-09-12T11:46:17.975Z,97131.20
2017-09-12T11:48:48.394Z,97145.77
2017-09-12T11:51:18.536Z,97155.71
2017-09-12T11:53:47.737Z,97165.17
2017-09-12T11:56:17.532Z,97199.03
2017-09-12T11:58:46.333Z,97176.12
2017-09-12T12:01:15.940Z,97175.45
2017-09-12T12:03:45.319Z,97181.21
2017-09-12T12:06:14.737Z,97178.95
2017-09-12T12:08:45.231Z,97179.84
2017-09-12T12:11:14.459Z,97191.89
2017-09-12T12:13:44.146Z,97226.75
2017-09-12T12:16:13.323Z,97219.94
2017-09-12T12:18:42.791Z,97225.39
2017-09-12T12:21:12.873Z,97221.08
2017-09-12T12:23:42.229Z,97219.44
2017-09-12T12:26:11.843Z,97216.69
2017-09-12T12:28:41.418Z,97214.92
2017-09-12T12:31:11.052Z,97211.22
2017-09-12T12:33:40.863Z,97218.95
2017-09-12T12:36:10.676Z,97210.51
2017-09-12T12:38:40.620Z,97210.86
2017-09-12T12:41:10.128Z,97209.78
2017-09-12T12:43:39.150Z,97201.38
2017-09-12T12:46:08.945Z,97198.05
2017-09-12T12:49:49.693Z,97198.25
2017-09-12T12:52:19.081Z,97207.83
2017-09-12T12:54:49.213Z,97207.41
2017-09-12T12:57:18.687Z,97199.97
2017-09-12T12:59:48.381Z,97203.19
2017-09-12T13:02:18.067Z,97211.69
2017-09-12T13:04:47.410Z,97206.02
2017-09-12T13:07:16.923Z,97209.27
2017-09-12T13:09:46.882Z,97209.88
2017-09-12T13:12:16.962Z,97209.13
2017-09-12T13:14:46.480Z,97212.52
2017-09-12T13:17:15.866Z,97212.50
2017-09-12T13:19:45.850Z,97189.05
2017-09-12T13:22:15.658Z,97231.56
2017-09-12T13:24:45.013Z,97228.38
2017-09-12T13:27:14.708Z,97237.62
2017-09-12T13:29:44.033Z,97232.66
2017-09-12T13:32:14.402Z,97236.82
2017-09-12T13:34:43.896Z,97233.63
2017-09-12T13:37:13.442Z,97231.27
2017-09-12T13:39:44.540Z,97236.28
2017-09-12T13:42:13.918Z,97229.94
2017-09-12T13:44:44.072Z,97227.05
2017-09-12T13:47:13.633Z,97234.42
2017-09-12T13:49:43.755Z,97237.59
2017-09-12T13:52:13.053Z,97250.38
2017-09-12T13:54:42.334Z,97248.09
2017-09-12T13:57:12.239Z,97255.27
2017-09-12T13:59:41.523Z,97254.33
2017-09-12T14:02:11.075Z,97263.61
2017-09-12T14:04:40.382Z,97256.10
2017-09-12T14:07:09.268Z,97271.73
2017-09-12T14:09:37.581Z,97275.51
2017-09-12T14:12:06.887Z,97279.15
2017-09-12T14:14:35.313Z,97273.06
2017-09-12T14:17:05.482Z,97274.47
2017-09-12T14:19:34.915Z,97275.51
2017-09-12T14:22:04.981Z,97273.16
2017-09-12T14:24:34.473Z,97280.31
2017-09-12T14:27:03.712Z,97271.23
2017-09-12T14:29:33.600Z,97273.95
2017-09-12T14:32:03.802Z,97277.38
2017-09-12T14:34:34.426Z,97271.81
2017-09-12T14:37:03.581Z,97272.37
2017-09-12T14:39:32.543Z,97273.46
2017-09-12T14:42:01.124Z,97282.38
2017-09-12T14:44:30.411Z,97280.25
2017-09-12T14:47:00.377Z,97285.42
2017-09-12T14:49:29.819Z,97297.47
2017-09-12T14:51:59.384Z,97300.95
2017-09-12T14:55:07.162Z,97297.00
2017-09-12T14:57:36.335Z,97303.50
2017-09-12T15:00:05.829Z,97303.33
2017-09-12T15:02:35.111Z,97302.18
2017-09-12T15:05:04.737Z,97305.91
2017-09-12T15:07:35.050Z,97318.63
2017-09-12T15:10:09.709Z,97327.03
2017-09-12T15:12:39.969Z,97327.13
2017-09-12T15:15:10.119Z,97332.52
2017-09-12T15:17:41.590Z,97330.20
2017-09-12T15:20:21.504Z,97335.20
2017-09-12T15:22:56.946Z,97338.29
2017-09-12T15:25:27.035Z,97350.66
2017-09-12T15:27:58.106Z,97352.73
2017-09-12T15:30:31.739Z,97352.56
2017-09-12T15:33:02.621Z,97349.67
2017-09-12T15:35:37.239Z,97345.59
2017-09-12T15:38:07.693Z,97352.38
2017-09-12T15:40:39.312Z,97351.38
2017-09-12T15:43:08.580Z,97354.73
2017-09-12T15:45:42.465Z,97360.14
2017-09-12T15:48:12.910Z,97357.44
2017-09-12T15:50:43.344Z,97363.08
2017-09-12T15:53:12.597Z,97365.79
2017-09-12T15:55:42.106Z,97365.41
2017-09-12T15:58:18.527Z,97380.47
2017-09-12T16:00:49.423Z,97382.95
2017-09-12T16:03:22.091Z,97384.28
2017-09-12T16:05:52.203Z,97378.66
2017-09-12T16:08:22.626Z,97375.41
2017-09-12T16:10:54.432Z,97372.27
2017-09-12T16:13:24.190Z,97376.47
2017-09-12T16:15:53.584Z,97373.76
2017-09-12T16:18:24.527Z,97375.30
2017-09-12T16:20:53.845Z,97372.25
2017-09-12T16:23:23.523Z,97375.63
2017-09-12T16:25:53.382Z,97373.65
2017-09-12T16:28:25.079Z,97383.89
2017-09-12T16:30:55.388Z,97382.54
2017-09-12T16:33:27.458Z,97386.16
2017-09-12T16:35:58.885Z,97401.48
2017-09-12T16:38:31.073Z,97404.44
2017-09-12T16:41:05.666Z,97407.94
2017-09-12T16:43:36.310Z,97410.22
2017-09-12T16:46:07.348Z,97417.72
2017-09-12T16:48:45.271Z,97421.44
2017-09-12T16:51:29.940Z,97420.03
2017-09-12T16:54:00.870Z,97421.11
2017-09-12T16:56:32.684Z,97431.71
2017-09-12T16:59:06.708Z,97424.37
2017-09-12T17:01:38.248Z,97422.13
2017-09-12T17:04:13.956Z,97425.95
2017-09-12T17:06:46.109Z,97429.97
2017-09-12T17:09:21.675Z,97421.16
2017-09-12T17:11:52.744Z,97424.61
2017-09-12T17:14:28.265Z,97426.82
2017-09-12T17:16:58.602Z,97424.53
2017-09-12T17:19:28.110Z,97422.03
2017-09-12T17:21:58.675Z,97422.94
2017-09-12T17:24:27.582Z,97424.16
2017-09-12T17:26:59.091Z,97426.69
2017-09-12T17:29:29.901Z,97422.87
2017-09-12T17:32:10.359Z,97428.52
2017-09-12T17:34:44.885Z,97423.17
2017-09-12T17:37:12.536Z,97429.55
2017-09-12T17:39:54.870Z,97430.69
2017-09-12T17:42:27.869Z,97430.85
2017-09-12T17:45:01.912Z,97441.22
2017-09-12T17:47:32.650Z,97443.62
2017-09-12T17:50:09.368Z,97437.20
2017-09-12T17:52:39.354Z,97450.06
2017-09-12T17:55:09.454Z,97449.49
2017-09-12T17:57:38.039Z,97451.30
2017-09-12T18:00:11.646Z,97457.59
2017-09-12T18:02:39.341Z,97462.05
2017-09-12T18:05:09.362Z,97467.73
2017-09-12T18:07:43.537Z,97474.26
2017-09-12T18:10:17.252Z,97463.20
2017-09-12T18:12:47.898Z,97473.52
2017-09-12T18:15:18.225Z,97476.31
2017-09-12T18:20:27.549Z,97487.30
2017-09-12T18:23:03.218Z,97488.50
2017-09-12T18:25:48.435Z,97486.75
2017-09-12T18:28:22.678Z,97491.24
2017-09-12T18:30:53.557Z,97510.20
2017-09-12T18:33:23.692Z,97508.52
2017-09-12T18:35:54.873Z,97513.67
2017-09-12T18:38:23.442Z,97523.94
2017-09-12T18:40:54.950Z,97521.87
2017-09-12T18:43:25.379Z,97526.41
2017-09-12T18:45:58.628Z,97534.38
2017-09-12T18:48:30.964Z,97539.41
2017-09-12T18:51:03.218Z,97544.34
2017-09-12T18:53:34.659Z,97546.25
